sensor_id;sensor_type;location;lat;lon;timestamp;P1;durP1;ratioP1;P2;durP2;ratioP2
29006;SDS011;16104;48.642;9.008;2024-03-08T00:03:06;32.53;;;19.27;;
29006;SDS011;16104;48.642;9.008;2024-03-08T00:08:02;29.42;;;19.45;;
29006;SDS011;16104;48.642;9.008;2024-03-08T00:12:58;34.60;;;20.83;;
29006;SDS011;16104;48.642;9.008;2024-03-08T00:17:53;32.35;;;20.00;;
29006;SDS011;16104;48.642;9.008;2024-03-08T00:22:49;30.65;;;19.20;;
29006;SDS011;16104;48.642;9.008;2024-03-08T00:27:44;34.53;;;20.95;;
29006;SDS011;16104;48.642;9.008;2024-03-08T00:32:40;34.30;;;19.73;;
29006;SDS011;16104;48.642;9.008;2024-03-08T00:37:36;33.75;;;20.20;;
29006;SDS011;16104;48.642;9.008;2024-03-08T00:42:31;27.95;;;18.92;;
29006;SDS011;16104;48.642;9.008;2024-03-08T00:47:28;34.15;;;19.95;;
29006;SDS011;16104;48.642;9.008;2024-03-08T00:52:23;31.08;;;19.33;;
29006;SDS011;16104;48.642;9.008;2024-03-08T00:57:19;32.33;;;19.83;;
29006;SDS011;16104;48.642;9.008;2024-03-08T05:04:13;30.60;;;18.25;;
29006;SDS011;16104;48.642;9.008;2024-03-08T05:09:10;30.70;;;17.40;;
29006;SDS011;16104;48.642;9.008;2024-03-08T05:14:08;32.17;;;19.65;;
29006;SDS011;16104;48.642;9.008;2024-03-08T05:19:04;34.17;;;18.75;;
29006;SDS011;16104;48.642;9.008;2024-03-08T05:24:00;31.42;;;18.42;;
29006;SDS011;16104;48.642;9.008;2024-03-08T05:28:56;30.73;;;17.80;;
29006;SDS011;16104;48.642;9.008;2024-03-08T05:33:51;31.10;;;17.25;;
29006;SDS011;16104;48.642;9.008;2024-03-08T05:38:49;25.98;;;16.02;;
29006;SDS011;16104;48.642;9.008;2024-03-08T05:43:45;29.88;;;16.80;;
29006;SDS011;16104;48.642;9.008;2024-03-08T05:48:40;25.95;;;16.00;;
29006;SDS011;16104;48.642;9.008;2024-03-08T05:53:36;30.83;;;17.60;;
29006;SDS011;16104;48.642;9.008;2024-03-08T05:58:32;39.97;;;21.30;;
29006;SDS011;16104;48.642;9.008;2024-03-08T06:03:27;45.33;;;24.52;;
29006;SDS011;16104;48.642;9.008;2024-03-08T06:08:23;44.25;;;24.30;;
29006;SDS011;16104;48.642;9.008;2024-03-08T06:13:18;44.30;;;23.98;;
29006;SDS011;16104;48.642;9.008;2024-03-08T06:18:14;41.35;;;24.10;;
29006;SDS011;16104;48.642;9.008;2024-03-08T06:23:10;32.95;;;19.58;;
29006;SDS011;16104;48.642;9.008;2024-03-08T06:28:05;35.63;;;20.88;;
29006;SDS011;16104;48.642;9.008;2024-03-08T06:33:01;37.78;;;21.95;;
29006;SDS011;16104;48.642;9.008;2024-03-08T06:37:57;31.77;;;20.02;;
29006;SDS011;16104;48.642;9.008;2024-03-08T06:42:53;47.72;;;31.23;;
29006;SDS011;16104;48.642;9.008;2024-03-08T06:47:49;36.45;;;23.90;;
29006;SDS011;16104;48.642;9.008;2024-03-08T06:52:45;36.08;;;21.33;;
29006;SDS011;16104;48.642;9.008;2024-03-08T06:57:45;32.30;;;18.67;;
29006;SDS011;16104;48.642;9.008;2024-03-08T07:02:41;30.85;;;18.75;;
29006;SDS011;16104;48.642;9.008;2024-03-08T07:07:38;34.72;;;19.38;;
29006;SDS011;16104;48.642;9.008;2024-03-08T07:12:33;32.08;;;18.77;;
29006;SDS011;16104;48.642;9.008;2024-03-08T07:17:29;33.85;;;19.98;;
29006;SDS011;16104;48.642;9.008;2024-03-08T07:22:24;34.20;;;20.58;;
29006;SDS011;16104;48.642;9.008;2024-03-08T07:27:20;33.38;;;18.92;;
29006;SDS011;16104;48.642;9.008;2024-03-08T07:32:15;32.47;;;19.05;;
29006;SDS011;16104;48.642;9.008;2024-03-08T07:37:17;33.83;;;19.02;;
29006;SDS011;16104;48.642;9.008;2024-03-08T07:42:14;30.83;;;19.88;;
29006;SDS011;16104;48.642;9.008;2024-03-08T07:47:09;33.53;;;19.50;;
29006;SDS011;16104;48.642;9.008;2024-03-08T07:52:05;33.42;;;19.95;;
29006;SDS011;16104;48.642;9.008;2024-03-08T07:57:02;35.45;;;21.00;;
29006;SDS011;16104;48.642;9.008;2024-03-08T08:01:58;30.10;;;18.70;;
29006;SDS011;16104;48.642;9.008;2024-03-08T08:06:55;30.58;;;19.10;;
29006;SDS011;16104;48.642;9.008;2024-03-08T08:11:50;30.67;;;19.98;;
29006;SDS011;16104;48.642;9.008;2024-03-08T08:16:46;33.05;;;19.42;;
29006;SDS011;16104;48.642;9.008;2024-03-08T08:21:43;30.92;;;18.88;;
29006;SDS011;16104;48.642;9.008;2024-03-08T08:26:38;31.33;;;18.13;;
29006;SDS011;16104;48.642;9.008;2024-03-08T08:31:34;30.70;;;18.58;;
29006;SDS011;16104;48.642;9.008;2024-03-08T08:36:29;28.75;;;16.70;;
29006;SDS011;16104;48.642;9.008;2024-03-08T08:41:26;31.08;;;18.85;;
29006;SDS011;16104;48.642;9.008;2024-03-08T08:46:22;26.50;;;16.50;;
29006;SDS011;16104;48.642;9.008;2024-03-08T08:51:17;27.38;;;17.92;;
29006;SDS011;16104;48.642;9.008;2024-03-08T08:56:13;27.25;;;17.75;;
29006;SDS011;16104;48.642;9.008;2024-03-08T09:01:09;26.15;;;16.77;;
29006;SDS011;16104;48.642;9.008;2024-03-08T09:06:07;28.10;;;17.45;;
29006;SDS011;16104;48.642;9.008;2024-03-08T09:11:06;24.60;;;16.35;;
29006;SDS011;16104;48.642;9.008;2024-03-08T09:16:01;27.08;;;17.15;;
29006;SDS011;16104;48.642;9.008;2024-03-08T09:20:58;25.73;;;17.15;;
29006;SDS011;16104;48.642;9.008;2024-03-08T09:25:54;27.15;;;15.70;;
29006;SDS011;16104;48.642;9.008;2024-03-08T09:30:50;24.85;;;16.30;;
29006;SDS011;16104;48.642;9.008;2024-03-08T09:35:46;27.75;;;17.55;;
29006;SDS011;16104;48.642;9.008;2024-03-08T09:40:46;105.32;;;45.58;;
29006;SDS011;16104;48.642;9.008;2024-03-08T09:45:42;48.08;;;34.33;;
29006;SDS011;16104;48.642;9.008;2024-03-08T09:50:40;27.45;;;18.00;;
29006;SDS011;16104;48.642;9.008;2024-03-08T09:55:38;28.13;;;19.67;;
29006;SDS011;16104;48.642;9.008;2024-03-08T10:00:40;27.95;;;17.65;;
29006;SDS011;16104;48.642;9.008;2024-03-08T10:05:37;26.30;;;16.65;;
29006;SDS011;16104;48.642;9.008;2024-03-08T10:10:33;27.27;;;16.65;;
29006;SDS011;16104;48.642;9.008;2024-03-08T10:15:30;25.52;;;17.10;;
29006;SDS011;16104;48.642;9.008;2024-03-08T10:20:28;27.92;;;18.10;;
29006;SDS011;16104;48.642;9.008;2024-03-08T10:25:28;28.60;;;17.90;;
29006;SDS011;16104;48.642;9.008;2024-03-08T10:30:25;28.50;;;17.90;;
29006;SDS011;16104;48.642;9.008;2024-03-08T10:35:21;26.48;;;16.73;;
29006;SDS011;16104;48.642;9.008;2024-03-08T10:40:18;24.98;;;15.75;;
29006;SDS011;16104;48.642;9.008;2024-03-08T10:45:29;22.48;;;14.88;;
29006;SDS011;16104;48.642;9.008;2024-03-08T10:50:29;24.98;;;17.08;;
29006;SDS011;16104;48.642;9.008;2024-03-08T10:55:29;22.88;;;15.65;;
29006;SDS011;16104;48.642;9.008;2024-03-08T11:00:27;22.48;;;15.15;;
29006;SDS011;16104;48.642;9.008;2024-03-08T11:05:39;28.90;;;18.05;;
29006;SDS011;16104;48.642;9.008;2024-03-08T11:10:45;31.35;;;19.48;;
29006;SDS011;16104;48.642;9.008;2024-03-08T11:15:49;45.33;;;23.45;;
29006;SDS011;16104;48.642;9.008;2024-03-08T11:20:45;38.60;;;20.05;;
29006;SDS011;16104;48.642;9.008;2024-03-08T11:25:44;38.20;;;19.15;;
29006;SDS011;16104;48.642;9.008;2024-03-08T11:30:42;27.83;;;17.42;;
29006;SDS011;16104;48.642;9.008;2024-03-08T11:35:38;24.08;;;14.63;;
29006;SDS011;16104;48.642;9.008;2024-03-08T11:40:35;21.15;;;14.35;;
29006;SDS011;16104;48.642;9.008;2024-03-08T11:45:30;22.75;;;14.20;;
29006;SDS011;16104;48.642;9.008;2024-03-08T11:50:26;19.05;;;13.88;;
29006;SDS011;16104;48.642;9.008;2024-03-08T11:55:22;21.92;;;14.70;;
29006;SDS011;16104;48.642;9.008;2024-03-08T12:00:19;24.17;;;14.05;;
29006;SDS011;16104;48.642;9.008;2024-03-08T12:05:21;22.35;;;14.05;;
29006;SDS011;16104;48.642;9.008;2024-03-08T12:10:17;18.08;;;13.27;;
29006;SDS011;16104;48.642;9.008;2024-03-08T12:20:22;17.23;;;12.85;;
29006;SDS011;16104;48.642;9.008;2024-03-08T12:25:20;18.55;;;13.80;;
29006;SDS011;16104;48.642;9.008;2024-03-08T12:35:25;16.58;;;12.23;;
29006;SDS011;16104;48.642;9.008;2024-03-08T12:40:25;17.95;;;13.15;;
29006;SDS011;16104;48.642;9.008;2024-03-08T12:45:26;18.23;;;12.90;;
29006;SDS011;16104;48.642;9.008;2024-03-08T12:50:22;20.98;;;14.73;;
29006;SDS011;16104;48.642;9.008;2024-03-08T12:55:19;15.02;;;11.85;;
29006;SDS011;16104;48.642;9.008;2024-03-08T13:00:15;16.08;;;12.50;;
29006;SDS011;16104;48.642;9.008;2024-03-08T13:05:18;16.45;;;12.88;;
29006;SDS011;16104;48.642;9.008;2024-03-08T13:10:15;19.00;;;13.07;;
29006;SDS011;16104;48.642;9.008;2024-03-08T13:15:11;15.77;;;11.48;;
29006;SDS011;16104;48.642;9.008;2024-03-08T13:20:15;16.67;;;12.15;;
29006;SDS011;16104;48.642;9.008;2024-03-08T13:25:14;16.45;;;12.38;;
29006;SDS011;16104;48.642;9.008;2024-03-08T13:30:10;16.85;;;12.15;;
29006;SDS011;16104;48.642;9.008;2024-03-08T13:35:09;16.42;;;12.27;;
29006;SDS011;16104;48.642;9.008;2024-03-08T13:40:10;16.67;;;12.48;;
29006;SDS011;16104;48.642;9.008;2024-03-08T13:45:09;15.75;;;11.63;;
29006;SDS011;16104;48.642;9.008;2024-03-08T13:50:09;17.00;;;12.05;;
29006;SDS011;16104;48.642;9.008;2024-03-08T13:55:13;17.42;;;12.18;;
29006;SDS011;16104;48.642;9.008;2024-03-08T14:00:09;15.35;;;11.55;;
29006;SDS011;16104;48.642;9.008;2024-03-08T14:05:06;16.20;;;12.95;;
29006;SDS011;16104;48.642;9.008;2024-03-08T14:10:04;15.95;;;11.95;;
29006;SDS011;16104;48.642;9.008;2024-03-08T14:15:01;25.05;;;15.90;;
29006;SDS011;16104;48.642;9.008;2024-03-08T14:20:00;19.97;;;13.00;;
29006;SDS011;16104;48.642;9.008;2024-03-08T14:24:56;17.00;;;12.63;;
29006;SDS011;16104;48.642;9.008;2024-03-08T14:29:52;19.52;;;12.85;;
29006;SDS011;16104;48.642;9.008;2024-03-08T14:34:49;20.35;;;13.90;;
29006;SDS011;16104;48.642;9.008;2024-03-08T14:39:45;17.27;;;12.65;;
29006;SDS011;16104;48.642;9.008;2024-03-08T14:44:40;17.45;;;12.38;;
29006;SDS011;16104;48.642;9.008;2024-03-08T14:49:36;20.42;;;14.10;;
29006;SDS011;16104;48.642;9.008;2024-03-08T14:54:33;31.67;;;20.05;;
29006;SDS011;16104;48.642;9.008;2024-03-08T14:59:28;24.90;;;16.48;;
29006;SDS011;16104;48.642;9.008;2024-03-08T15:04:25;25.05;;;17.95;;
29006;SDS011;16104;48.642;9.008;2024-03-08T15:09:21;17.08;;;12.65;;
29006;SDS011;16104;48.642;9.008;2024-03-08T15:14:16;18.25;;;13.63;;
29006;SDS011;16104;48.642;9.008;2024-03-08T15:19:14;18.08;;;11.88;;
29006;SDS011;16104;48.642;9.008;2024-03-08T15:24:10;16.38;;;12.48;;
29006;SDS011;16104;48.642;9.008;2024-03-08T15:34:07;22.08;;;13.63;;
29006;SDS011;16104;48.642;9.008;2024-03-08T15:39:03;18.05;;;12.43;;
29006;SDS011;16104;48.642;9.008;2024-03-08T15:44:04;18.17;;;12.57;;
29006;SDS011;16104;48.642;9.008;2024-03-08T15:49:00;19.30;;;13.27;;
29006;SDS011;16104;48.642;9.008;2024-03-08T15:53:57;19.70;;;13.55;;
29006;SDS011;16104;48.642;9.008;2024-03-08T15:58:52;19.65;;;12.98;;
29006;SDS011;16104;48.642;9.008;2024-03-08T16:03:48;20.20;;;13.15;;
29006;SDS011;16104;48.642;9.008;2024-03-08T16:08:44;21.50;;;13.90;;
29006;SDS011;16104;48.642;9.008;2024-03-08T16:13:40;21.23;;;14.63;;
29006;SDS011;16104;48.642;9.008;2024-03-08T16:18:36;20.08;;;14.00;;
29006;SDS011;16104;48.642;9.008;2024-03-08T16:23:35;26.70;;;17.83;;
29006;SDS011;16104;48.642;9.008;2024-03-08T16:28:31;33.95;;;19.33;;
29006;SDS011;16104;48.642;9.008;2024-03-08T16:33:33;28.13;;;18.02;;
29006;SDS011;16104;48.642;9.008;2024-03-08T16:38:29;24.23;;;15.65;;
29006;SDS011;16104;48.642;9.008;2024-03-08T16:43:25;23.25;;;15.93;;
29006;SDS011;16104;48.642;9.008;2024-03-08T16:48:21;25.83;;;16.90;;
29006;SDS011;16104;48.642;9.008;2024-03-08T16:53:18;24.70;;;17.45;;
29006;SDS011;16104;48.642;9.008;2024-03-08T16:58:13;21.23;;;14.05;;
29006;SDS011;16104;48.642;9.008;2024-03-08T17:03:13;25.55;;;16.83;;
29006;SDS011;16104;48.642;9.008;2024-03-08T17:08:08;23.35;;;16.10;;
29006;SDS011;16104;48.642;9.008;2024-03-08T17:13:05;26.50;;;14.98;;
29006;SDS011;16104;48.642;9.008;2024-03-08T17:18:03;21.65;;;14.73;;
29006;SDS011;16104;48.642;9.008;2024-03-08T17:23:03;20.50;;;13.32;;
29006;SDS011;16104;48.642;9.008;2024-03-08T17:28:01;25.85;;;16.08;;
29006;SDS011;16104;48.642;9.008;2024-03-08T17:33:01;24.30;;;16.00;;
29006;SDS011;16104;48.642;9.008;2024-03-08T17:37:58;22.13;;;14.68;;
29006;SDS011;16104;48.642;9.008;2024-03-08T17:42:55;23.63;;;14.05;;
29006;SDS011;16104;48.642;9.008;2024-03-08T17:47:55;21.65;;;13.85;;
29006;SDS011;16104;48.642;9.008;2024-03-08T17:52:51;23.02;;;14.90;;
29006;SDS011;16104;48.642;9.008;2024-03-08T17:57:48;23.52;;;15.18;;
29006;SDS011;16104;48.642;9.008;2024-03-08T18:02:46;26.52;;;16.13;;
29006;SDS011;16104;48.642;9.008;2024-03-08T18:07:45;23.83;;;15.07;;
29006;SDS011;16104;48.642;9.008;2024-03-08T18:12:41;26.75;;;17.15;;
29006;SDS011;16104;48.642;9.008;2024-03-08T18:17:36;25.63;;;16.30;;
29006;SDS011;16104;48.642;9.008;2024-03-08T18:22:33;26.80;;;15.75;;
29006;SDS011;16104;48.642;9.008;2024-03-08T18:27:28;25.55;;;15.95;;
29006;SDS011;16104;48.642;9.008;2024-03-08T18:32:24;25.10;;;15.80;;
29006;SDS011;16104;48.642;9.008;2024-03-08T18:37:19;20.80;;;13.65;;
29006;SDS011;16104;48.642;9.008;2024-03-08T18:42:17;24.63;;;15.30;;
29006;SDS011;16104;48.642;9.008;2024-03-08T18:47:13;28.98;;;17.38;;
29006;SDS011;16104;48.642;9.008;2024-03-08T18:52:08;23.85;;;15.43;;
29006;SDS011;16104;48.642;9.008;2024-03-08T18:57:04;25.35;;;15.50;;
29006;SDS011;16104;48.642;9.008;2024-03-08T19:02:00;23.45;;;15.30;;
29006;SDS011;16104;48.642;9.008;2024-03-08T19:06:57;22.83;;;15.10;;
29006;SDS011;16104;48.642;9.008;2024-03-08T19:11:53;24.95;;;16.00;;
29006;SDS011;16104;48.642;9.008;2024-03-08T19:16:51;21.27;;;14.48;;
29006;SDS011;16104;48.642;9.008;2024-03-08T19:21:46;23.42;;;13.73;;
29006;SDS011;16104;48.642;9.008;2024-03-08T19:26:42;30.15;;;16.92;;
29006;SDS011;16104;48.642;9.008;2024-03-08T19:31:40;26.50;;;16.60;;
29006;SDS011;16104;48.642;9.008;2024-03-08T19:36:36;23.90;;;15.35;;
29006;SDS011;16104;48.642;9.008;2024-03-08T19:41:31;31.05;;;20.60;;
29006;SDS011;16104;48.642;9.008;2024-03-08T19:46:28;38.63;;;24.83;;
29006;SDS011;16104;48.642;9.008;2024-03-08T19:51:29;29.23;;;20.15;;
29006;SDS011;16104;48.642;9.008;2024-03-08T19:56:25;30.40;;;20.13;;
29006;SDS011;16104;48.642;9.008;2024-03-08T20:01:24;25.55;;;16.33;;
29006;SDS011;16104;48.642;9.008;2024-03-08T20:06:19;22.88;;;15.27;;
29006;SDS011;16104;48.642;9.008;2024-03-08T20:11:16;32.40;;;20.65;;
29006;SDS011;16104;48.642;9.008;2024-03-08T20:16:12;27.33;;;16.92;;
29006;SDS011;16104;48.642;9.008;2024-03-08T20:21:07;29.15;;;18.25;;
29006;SDS011;16104;48.642;9.008;2024-03-08T20:26:03;28.15;;;17.83;;
29006;SDS011;16104;48.642;9.008;2024-03-08T20:31:05;23.20;;;14.40;;
29006;SDS011;16104;48.642;9.008;2024-03-08T20:36:01;28.73;;;15.38;;
29006;SDS011;16104;48.642;9.008;2024-03-08T20:40:56;23.73;;;15.02;;
29006;SDS011;16104;48.642;9.008;2024-03-08T20:45:52;26.75;;;16.80;;
29006;SDS011;16104;48.642;9.008;2024-03-08T20:50:48;29.45;;;17.50;;
29006;SDS011;16104;48.642;9.008;2024-03-08T20:55:45;25.73;;;14.88;;
29006;SDS011;16104;48.642;9.008;2024-03-08T21:00:42;27.33;;;16.25;;
29006;SDS011;16104;48.642;9.008;2024-03-08T21:05:43;24.77;;;16.23;;
29006;SDS011;16104;48.642;9.008;2024-03-08T21:10:39;31.95;;;18.88;;
29006;SDS011;16104;48.642;9.008;2024-03-08T21:15:35;30.98;;;17.15;;
29006;SDS011;16104;48.642;9.008;2024-03-08T21:20:31;31.70;;;19.83;;
29006;SDS011;16104;48.642;9.008;2024-03-08T21:25:27;33.08;;;19.27;;
29006;SDS011;16104;48.642;9.008;2024-03-08T21:30:22;30.73;;;17.38;;
29006;SDS011;16104;48.642;9.008;2024-03-08T21:35:20;30.60;;;17.88;;
29006;SDS011;16104;48.642;9.008;2024-03-08T21:40:16;28.55;;;16.98;;
29006;SDS011;16104;48.642;9.008;2024-03-08T21:45:24;26.70;;;16.52;;
29006;SDS011;16104;48.642;9.008;2024-03-08T21:50:28;23.02;;;13.77;;
29006;SDS011;16104;48.642;9.008;2024-03-08T21:55:30;30.95;;;17.35;;
29006;SDS011;16104;48.642;9.008;2024-03-08T22:00:26;26.98;;;17.20;;
29006;SDS011;16104;48.642;9.008;2024-03-08T22:05:27;24.70;;;15.32;;
29006;SDS011;16104;48.642;9.008;2024-03-08T22:10:24;26.92;;;16.45;;
29006;SDS011;16104;48.642;9.008;2024-03-08T22:15:24;21.88;;;13.68;;
29006;SDS011;16104;48.642;9.008;2024-03-08T22:20:20;25.20;;;14.80;;
29006;SDS011;16104;48.642;9.008;2024-03-08T22:25:26;30.95;;;17.42;;
29006;SDS011;16104;48.642;9.008;2024-03-08T22:30:22;27.30;;;16.17;;
29006;SDS011;16104;48.642;9.008;2024-03-08T22:35:19;24.63;;;14.73;;
29006;SDS011;16104;48.642;9.008;2024-03-08T22:40:15;28.95;;;17.40;;
29006;SDS011;16104;48.642;9.008;2024-03-08T22:45:11;27.88;;;16.27;;
29006;SDS011;16104;48.642;9.008;2024-03-08T22:50:12;22.48;;;13.63;;
29006;SDS011;16104;48.642;9.008;2024-03-08T23:00:08;24.65;;;14.68;;
29006;SDS011;16104;48.642;9.008;2024-03-08T23:05:19;25.67;;;14.57;;
29006;SDS011;16104;48.642;9.008;2024-03-08T23:10:17;26.50;;;16.17;;
29006;SDS011;16104;48.642;9.008;2024-03-08T23:15:12;26.45;;;16.10;;
29006;SDS011;16104;48.642;9.008;2024-03-08T23:20:09;27.10;;;15.45;;
29006;SDS011;16104;48.642;9.008;2024-03-08T23:25:09;67.40;;;26.05;;
29006;SDS011;16104;48.642;9.008;2024-03-08T23:30:06;52.88;;;21.98;;
29006;SDS011;16104;48.642;9.008;2024-03-08T23:35:05;50.88;;;19.80;;
29006;SDS011;16104;48.642;9.008;2024-03-08T23:40:04;49.40;;;20.05;;
29006;SDS011;16104;48.642;9.008;2024-03-08T23:45:03;29.55;;;14.80;;
29006;SDS011;16104;48.642;9.008;2024-03-08T23:49:59;65.32;;;23.25;;
29006;SDS011;16104;48.642;9.008;2024-03-08T23:54:54;38.13;;;18.60;;
29006;SDS011;16104;48.642;9.008;2024-03-08T23:59:50;45.17;;;21.67;;
